createdAt,value
2019-04-28T00:02:04.307Z,96.00
2019-04-28T00:07:09.144Z,96.20
2019-04-28T00:12:14.052Z,96.50
2019-04-28T00:17:18.880Z,95.80
2019-04-28T00:22:25.280Z,95.20
2019-04-28T00:27:31.580Z,95.30
2019-04-28T00:32:36.403Z,95.50
2019-04-28T00:37:41.779Z,95.90
2019-04-28T00:42:47.094Z,95.70
2019-04-28T00:47:52.005Z,94.70
2019-04-28T00:52:56.837Z,94.20
2019-04-28T00:58:01.678Z,94.00
2019-04-28T01:03:06.593Z,93.90
2019-04-28T01:08:11.440Z,93.90
2019-04-28T01:13:16.587Z,93.70
2019-04-28T01:18:42.359Z,93.60
2019-04-28T01:23:47.288Z,94.00
2019-04-28T01:28:52.667Z,93.60
2019-04-28T01:34:15.460Z,93.40
2019-04-28T01:39:20.389Z,93.40
2019-04-28T01:44:25.547Z,93.50
2019-04-28T01:49:30.390Z,93.30
2019-04-28T01:54:35.233Z,93.40
2019-04-28T01:59:40.467Z,93.50
2019-04-28T02:04:45.504Z,93.50
2019-04-28T02:09:50.340Z,93.00
2019-04-28T02:14:55.181Z,93.20
2019-04-28T02:20:00.802Z,93.30
2019-04-28T02:25:07.498Z,93.10
2019-04-28T02:30:12.327Z,93.00
2019-04-28T02:35:17.178Z,93.10
2019-04-28T02:40:22.021Z,93.00
2019-04-28T02:45:26.937Z,93.00
2019-04-28T02:50:33.405Z,93.00
2019-04-28T02:55:40.903Z,92.90
2019-04-28T03:01:01.154Z,93.00
2019-04-28T03:05:51.422Z,92.60
2019-04-28T03:10:56.390Z,92.40
2019-04-28T03:16:01.847Z,92.30
2019-04-28T03:21:07.072Z,92.30
2019-04-28T03:26:13.545Z,92.50
2019-04-28T03:31:49.053Z,92.80
2019-04-28T03:36:26.442Z,92.10
2019-04-28T03:41:31.268Z,91.80
2019-04-28T03:46:41.185Z,91.60
2019-04-28T03:51:44.749Z,91.70
2019-04-28T03:56:50.150Z,91.80
2019-04-28T04:02:02.326Z,91.90
2019-04-28T04:07:03.563Z,92.10
2019-04-28T04:12:15.536Z,92.20
2019-04-28T04:17:33.849Z,92.60
2019-04-28T04:22:41.046Z,92.30
2019-04-28T04:27:44.867Z,91.60
2019-04-28T04:32:50.686Z,91.20
2019-04-28T04:37:55.651Z,91.00
2019-04-28T04:43:01.585Z,91.10
2019-04-28T04:48:07.040Z,91.00
2019-04-28T04:53:11.791Z,90.40
2019-04-28T04:58:16.612Z,90.20
2019-04-28T05:03:29.501Z,90.20
2019-04-28T05:08:47.293Z,90.10
2019-04-28T05:13:52.124Z,90.10
2019-04-28T05:18:56.895Z,89.60
2019-04-28T05:24:15.816Z,90.10
2019-04-28T05:29:19.987Z,89.70
2019-04-28T05:34:24.949Z,90.00
2019-04-28T05:39:30.062Z,89.10
2019-04-28T05:44:37.472Z,87.10
2019-04-28T05:49:55.058Z,86.50
2019-04-28T05:55:07.309Z,87.10
2019-04-28T06:00:19.829Z,86.50
2019-04-28T06:05:24.775Z,86.80
2019-04-28T06:10:29.945Z,85.70
2019-04-28T06:15:35.458Z,85.30
2019-04-28T06:20:40.654Z,83.60
2019-04-28T06:25:45.775Z,84.90
2019-04-28T06:30:50.529Z,83.40
2019-04-28T06:35:55.362Z,82.30
2019-04-28T06:41:00.203Z,83.70
2019-04-28T06:46:05.137Z,81.40
2019-04-28T06:51:10.069Z,82.60
2019-04-28T06:56:14.817Z,81.60
2019-04-28T07:01:19.732Z,80.80
2019-04-28T07:06:24.560Z,80.40
2019-04-28T07:11:29.380Z,81.10
2019-04-28T07:16:34.277Z,81.40
2019-04-28T07:21:43.566Z,79.20
2019-04-28T07:26:48.412Z,80.70
2019-04-28T07:31:53.309Z,79.40
2019-04-28T07:36:58.157Z,80.60
2019-04-28T07:42:02.999Z,76.80
2019-04-28T07:47:07.825Z,76.90
2019-04-28T07:52:17.220Z,75.50
2019-04-28T07:57:24.056Z,77.00
2019-04-28T08:02:30.045Z,76.10
2019-04-28T08:07:34.896Z,75.40
2019-04-28T08:12:39.735Z,75.00
2019-04-28T08:17:44.580Z,75.80
2019-04-28T08:22:49.344Z,77.40
2019-04-28T08:27:54.186Z,75.20
2019-04-28T08:33:00.509Z,76.10
2019-04-28T08:38:05.341Z,76.60
2019-04-28T08:43:10.231Z,76.10
2019-04-28T08:48:15.007Z,75.90
2019-04-28T08:53:19.919Z,75.50
2019-04-28T08:58:24.823Z,75.20
2019-04-28T09:03:29.663Z,75.60
2019-04-28T09:08:34.504Z,74.10
2019-04-28T09:13:39.338Z,74.10
2019-04-28T09:18:44.183Z,74.70
2019-04-28T09:23:49.019Z,75.70
2019-04-28T09:28:53.718Z,73.80
2019-04-28T09:33:58.548Z,73.20
2019-04-28T09:39:05.429Z,74.40
2019-04-28T09:44:11.910Z,74.70
2019-04-28T09:49:16.755Z,73.00
2019-04-28T09:54:21.590Z,71.70
2019-04-28T09:59:26.602Z,73.10
2019-04-28T10:04:40.964Z,71.70
2019-04-28T10:09:38.594Z,71.60
2019-04-28T10:14:43.444Z,72.00
2019-04-28T10:19:48.294Z,71.80
2019-04-28T10:24:53.143Z,69.90
2019-04-28T10:29:57.991Z,71.10
2019-04-28T10:35:02.892Z,70.30
2019-04-28T10:40:13.509Z,69.40
2019-04-28T10:45:19.998Z,69.80
2019-04-28T10:50:24.842Z,72.50
2019-04-28T10:55:29.673Z,73.60
2019-04-28T11:00:36.166Z,76.10
2019-04-28T11:05:42.709Z,76.40
2019-04-28T11:10:47.723Z,75.60
2019-04-28T11:15:52.641Z,78.80
2019-04-28T11:20:57.875Z,80.80
2019-04-28T11:26:02.985Z,82.80
2019-04-28T11:31:07.895Z,82.60
2019-04-28T11:36:13.917Z,84.40
2019-04-28T11:41:18.744Z,87.10
2019-04-28T11:46:23.644Z,88.00
2019-04-28T11:51:28.491Z,85.50
2019-04-28T11:56:41.170Z,90.00
2019-04-28T12:01:39.768Z,87.90
2019-04-28T12:06:44.669Z,88.00
2019-04-28T12:11:53.969Z,90.70
2019-04-28T12:17:03.316Z,90.80
2019-04-28T12:22:08.229Z,91.30
2019-04-28T12:27:13.061Z,91.20
2019-04-28T12:32:17.993Z,91.20
2019-04-28T12:37:22.840Z,91.10
2019-04-28T12:42:27.688Z,91.20
2019-04-28T12:47:32.575Z,92.20
2019-04-28T12:52:37.519Z,91.90
2019-04-28T12:57:42.427Z,91.60
2019-04-28T13:03:06.955Z,90.90
2019-04-28T13:08:11.813Z,90.50
2019-04-28T13:13:16.751Z,91.10
2019-04-28T13:18:21.597Z,91.90
2019-04-28T13:23:26.504Z,91.00
2019-04-28T13:28:31.303Z,92.00
2019-04-28T13:33:36.258Z,91.30
2019-04-28T13:38:41.109Z,91.00
2019-04-28T13:43:45.925Z,91.20
2019-04-28T13:48:50.807Z,91.60
2019-04-28T13:53:55.672Z,91.70
2019-04-28T13:59:02.124Z,92.00
2019-04-28T14:04:11.870Z,91.60
2019-04-28T14:09:17.210Z,92.40
2019-04-28T14:14:22.072Z,91.50
2019-04-28T14:19:26.963Z,91.30
2019-04-28T14:24:31.862Z,92.20
2019-04-28T14:29:36.697Z,92.20
2019-04-28T14:34:41.711Z,92.20
2019-04-28T14:39:46.436Z,92.40
2019-04-28T14:44:51.346Z,93.60
2019-04-28T14:49:56.079Z,93.00
2019-04-28T14:55:00.937Z,93.00
2019-04-28T15:00:11.207Z,93.40
2019-04-28T15:05:30.277Z,92.90
2019-04-28T15:10:39.724Z,92.80
2019-04-28T15:15:44.835Z,92.60
2019-04-28T15:20:49.780Z,93.50
2019-04-28T15:25:54.665Z,93.80
2019-04-28T15:30:59.547Z,93.50
2019-04-28T15:36:04.912Z,94.40
2019-04-28T15:41:20.937Z,94.60
2019-04-28T15:46:16.278Z,95.50
2019-04-28T15:51:21.206Z,95.00
2019-04-28T15:56:36.564Z,95.10
2019-04-28T16:03:09.429Z,94.80
2019-04-28T16:08:14.264Z,95.40
2019-04-28T16:13:19.125Z,95.60
2019-04-28T16:18:23.977Z,96.60
2019-04-28T16:23:28.793Z,96.90
2019-04-28T16:28:33.643Z,94.00
2019-04-28T16:33:38.481Z,92.90
2019-04-28T16:38:43.575Z,92.70
2019-04-28T16:43:49.042Z,92.50
2019-04-28T16:48:53.887Z,91.90
2019-04-28T16:53:58.652Z,92.20
2019-04-28T16:59:17.612Z,92.00
2019-04-28T17:04:22.622Z,92.90
2019-04-28T17:09:27.456Z,93.00
2019-04-28T17:14:32.375Z,92.50
2019-04-28T17:19:37.290Z,92.30
2019-04-28T17:24:42.136Z,92.00
2019-04-28T17:29:47.745Z,91.50
2019-04-28T17:34:53.455Z,90.60
2019-04-28T17:39:58.649Z,89.70
2019-04-28T17:45:04.485Z,87.80
2019-04-28T17:50:11.064Z,86.20
2019-04-28T17:55:15.985Z,84.80
2019-04-28T18:00:38.923Z,84.20
2019-04-28T18:05:45.439Z,84.40
2019-04-28T18:10:50.273Z,84.70
2019-04-28T18:15:59.455Z,84.70
2019-04-28T18:21:04.471Z,85.00
2019-04-28T18:26:09.316Z,84.80
2019-04-28T18:31:15.803Z,85.60
2019-04-28T18:36:24.980Z,86.10
2019-04-28T18:41:40.414Z,86.90
2019-04-28T18:46:45.452Z,87.60
2019-04-28T18:51:50.328Z,88.50
2019-04-28T18:56:55.199Z,88.70
2019-04-28T19:02:01.718Z,87.50
2019-04-28T19:07:08.236Z,87.10
2019-04-28T19:12:17.678Z,86.20
2019-04-28T19:17:36.080Z,85.80
2019-04-28T19:22:44.552Z,86.20
2019-04-28T19:27:49.424Z,86.90
2019-04-28T19:32:54.287Z,87.50
2019-04-28T19:37:59.175Z,89.20
2019-04-28T19:43:04.127Z,90.00
2019-04-28T19:48:08.980Z,90.40
2019-04-28T19:53:13.847Z,90.70
2019-04-28T19:58:20.585Z,90.90
2019-04-28T20:03:25.500Z,91.10
2019-04-28T20:08:30.344Z,91.30
2019-04-28T20:13:35.147Z,91.30
2019-04-28T20:18:40.019Z,91.50
2019-04-28T20:23:44.864Z,91.70
2019-04-28T20:28:49.718Z,91.70
2019-04-28T20:33:54.610Z,91.80
2019-04-28T20:39:01.157Z,91.70
2019-04-28T20:44:06.112Z,91.60
2019-04-28T20:49:11.048Z,91.50
2019-04-28T20:54:15.922Z,91.60
2019-04-28T20:59:21.190Z,91.60
2019-04-28T21:04:25.983Z,91.50
2019-04-28T21:09:30.826Z,91.70
2019-04-28T21:14:35.672Z,91.80
2019-04-28T21:19:40.496Z,92.00
2019-04-28T21:24:45.336Z,92.20
2019-04-28T21:29:50.253Z,92.40
2019-04-28T21:34:55.098Z,92.60
2019-04-28T21:39:59.937Z,92.90
2019-04-28T21:45:07.926Z,93.00
2019-04-28T21:50:12.774Z,93.20
2019-04-28T21:55:17.542Z,93.40
2019-04-28T22:00:26.446Z,93.60
2019-04-28T22:05:31.268Z,93.80
2019-04-28T22:10:36.107Z,93.80
2019-04-28T22:15:40.939Z,94.10
2019-04-28T22:20:45.790Z,94.20
2019-04-28T22:25:50.636Z,94.40
2019-04-28T22:30:55.544Z,94.40
2019-04-28T22:36:00.382Z,94.60
2019-04-28T22:41:05.224Z,94.70
2019-04-28T22:46:10.068Z,94.80
2019-04-28T22:51:14.977Z,95.00
2019-04-28T22:56:24.179Z,95.20
2019-04-28T23:01:32.232Z,95.30
2019-04-28T23:06:37.087Z,95.60
2019-04-28T23:11:42.084Z,95.70
2019-04-28T23:16:47.006Z,95.70
2019-04-28T23:21:53.502Z,96.00
2019-04-28T23:26:58.345Z,96.00
2019-04-28T23:32:03.354Z,96.20
2019-04-28T23:37:08.201Z,96.20
2019-04-28T23:42:14.684Z,96.20
2019-04-28T23:47:19.535Z,96.40
2019-04-28T23:52:28.755Z,96.30
2019-04-28T23:57:33.528Z,96.40
